createdAt,value
2023-01-20T00:01:52.385Z,3.00
2023-01-20T00:04:21.849Z,2.90
2023-01-20T00:06:51.776Z,2.70
2023-01-20T00:09:21.256Z,2.80
2023-01-20T00:11:50.689Z,2.90
2023-01-20T00:14:21.453Z,3.00
2023-01-20T00:16:50.874Z,2.90
2023-01-20T00:19:20.363Z,2.90
2023-01-20T00:21:49.881Z,2.90
2023-01-20T00:24:19.296Z,2.90
2023-01-20T00:26:48.781Z,2.90
2023-01-20T00:29:18.703Z,2.90
2023-01-20T00:31:48.121Z,3.00
2023-01-20T00:34:17.542Z,3.00
2023-01-20T00:36:47.109Z,3.00
2023-01-20T00:39:16.536Z,2.90
2023-01-20T00:41:45.938Z,2.80
2023-01-20T00:44:15.403Z,2.70
2023-01-20T00:46:44.851Z,2.90
2023-01-20T00:49:14.523Z,2.80
2023-01-20T00:51:44.039Z,2.90
2023-01-20T00:54:14.369Z,2.80
2023-01-20T00:56:43.890Z,2.90
2023-01-20T00:59:14.740Z,2.90
2023-01-20T01:01:46.147Z,2.80
2023-01-20T01:04:16.833Z,2.90
2023-01-20T01:06:46.327Z,2.80
2023-01-20T01:09:15.838Z,2.80
2023-01-20T01:11:45.965Z,2.80
2023-01-20T01:14:15.449Z,2.80
2023-01-20T01:16:45.331Z,2.80
2023-01-20T01:19:16.377Z,2.80
2023-01-20T01:21:46.477Z,2.80
2023-01-20T01:24:15.875Z,2.80
2023-01-20T01:26:45.717Z,2.80
2023-01-20T01:29:15.174Z,2.80
2023-01-20T01:31:44.697Z,2.80
2023-01-20T01:34:15.226Z,2.70
2023-01-20T01:36:44.692Z,2.90
2023-01-20T01:39:14.111Z,2.80
2023-01-20T01:41:43.553Z,2.90
2023-01-20T01:44:15.275Z,3.00
2023-01-20T01:46:45.023Z,2.80
2023-01-20T01:49:26.201Z,2.90
2023-01-20T01:52:04.945Z,2.90
2023-01-20T01:54:37.515Z,2.80
2023-01-20T01:57:10.749Z,2.90
2023-01-20T01:59:40.705Z,3.00
2023-01-20T02:02:10.262Z,2.90
2023-01-20T02:04:39.818Z,2.90
2023-01-20T02:07:18.414Z,2.80
2023-01-20T02:09:48.298Z,2.90
2023-01-20T02:12:21.592Z,2.80
2023-01-20T02:14:54.088Z,2.90
2023-01-20T02:17:38.818Z,2.90
2023-01-20T02:20:23.177Z,2.80
2023-01-20T02:22:56.685Z,2.70
2023-01-20T02:25:53.533Z,2.90
2023-01-20T02:28:26.146Z,2.70
2023-01-20T02:30:58.645Z,2.90
2023-01-20T02:33:39.987Z,2.80
2023-01-20T02:36:18.199Z,2.90
2023-01-20T02:38:50.716Z,2.90
2023-01-20T02:41:35.417Z,2.80
2023-01-20T02:44:41.803Z,2.80
2023-01-20T02:47:14.581Z,2.80
2023-01-20T02:50:11.726Z,2.60
2023-01-20T02:52:46.982Z,2.70
2023-01-20T02:55:20.296Z,2.50
2023-01-20T02:57:53.593Z,2.50
2023-01-20T03:00:44.463Z,2.70
2023-01-20T03:03:16.959Z,2.80
2023-01-20T03:05:49.784Z,2.70
2023-01-20T03:08:22.247Z,2.80
2023-01-20T03:10:54.979Z,2.80
2023-01-20T03:13:39.481Z,2.90
2023-01-20T03:16:15.937Z,2.80
2023-01-20T03:18:47.681Z,2.60
2023-01-20T03:21:17.521Z,2.60
2023-01-20T03:25:44.439Z,2.60
2023-01-20T03:28:14.617Z,2.50
2023-01-20T03:30:45.093Z,2.50
2023-01-20T03:33:18.384Z,2.50
2023-01-20T03:35:48.240Z,2.40
2023-01-20T03:38:17.797Z,2.40
2023-01-20T03:40:50.876Z,2.30
2023-01-20T03:43:21.637Z,2.30
2023-01-20T03:45:57.941Z,2.40
2023-01-20T03:48:28.104Z,2.20
2023-01-20T03:50:58.191Z,2.30
2023-01-20T03:53:38.464Z,2.20
2023-01-20T03:56:08.563Z,2.10
2023-01-20T03:58:38.631Z,2.10
2023-01-20T04:01:18.099Z,2.20
2023-01-20T04:03:40.726Z,2.10
2023-01-20T04:06:10.860Z,2.10
2023-01-20T04:08:41.118Z,2.10
2023-01-20T04:11:09.752Z,1.90
2023-01-20T04:13:38.310Z,1.90
2023-01-20T04:16:08.483Z,1.90
2023-01-20T04:18:40.945Z,2.00
2023-01-20T04:21:13.444Z,1.80
2023-01-20T04:23:47.694Z,1.90
2023-01-20T04:26:17.013Z,1.80
2023-01-20T04:28:45.659Z,2.00
2023-01-20T04:31:29.532Z,1.90
2023-01-20T04:33:46.124Z,1.90
2023-01-20T04:36:16.408Z,1.90
2023-01-20T04:38:45.835Z,2.10
2023-01-20T04:41:15.861Z,2.00
2023-01-20T04:43:47.652Z,2.10
2023-01-20T04:46:17.665Z,2.00
2023-01-20T04:48:47.775Z,2.10
2023-01-20T04:51:17.280Z,2.00
2023-01-20T04:53:47.156Z,2.20
2023-01-20T04:56:17.034Z,2.00
2023-01-20T04:58:49.740Z,2.10
2023-01-20T05:01:18.691Z,2.10
2023-01-20T05:03:49.503Z,2.20
2023-01-20T05:06:20.184Z,2.20
2023-01-20T05:08:49.633Z,2.20
2023-01-20T05:11:20.427Z,2.20
2023-01-20T05:13:49.929Z,2.30
2023-01-20T05:16:21.037Z,2.30
2023-01-20T05:18:52.169Z,2.20
2023-01-20T05:21:21.757Z,2.20
2023-01-20T05:23:52.188Z,2.20
2023-01-20T05:26:24.662Z,2.30
2023-01-20T05:28:53.670Z,2.20
2023-01-20T05:31:23.150Z,2.10
2023-01-20T05:33:52.874Z,2.20
2023-01-20T05:36:22.457Z,2.20
2023-01-20T05:38:51.880Z,2.30
2023-01-20T05:41:22.476Z,2.20
2023-01-20T05:43:54.131Z,2.20
2023-01-20T05:46:24.140Z,2.20
2023-01-20T05:48:53.812Z,2.20
2023-01-20T05:51:23.236Z,2.10
2023-01-20T05:53:52.675Z,2.30
2023-01-20T05:56:22.911Z,2.30
2023-01-20T05:58:57.219Z,2.30
2023-01-20T06:01:26.877Z,2.20
2023-01-20T06:03:57.191Z,2.20
2023-01-20T06:06:27.078Z,2.20
2023-01-20T06:08:56.493Z,2.20
2023-01-20T06:11:26.087Z,2.20
2023-01-20T06:13:56.012Z,2.20
2023-01-20T06:16:25.651Z,2.30
2023-01-20T06:18:55.187Z,2.20
2023-01-20T06:21:25.255Z,2.20
2023-01-20T06:23:54.752Z,2.20
2023-01-20T06:26:24.352Z,2.30
2023-01-20T06:28:53.843Z,2.30
2023-01-20T06:31:23.445Z,2.20
2023-01-20T06:33:53.182Z,2.20
2023-01-20T06:36:23.135Z,2.10
2023-01-20T06:38:53.283Z,2.20
2023-01-20T06:41:22.917Z,2.20
2023-01-20T06:43:52.922Z,2.20
2023-01-20T06:46:22.661Z,2.10
2023-01-20T06:48:52.208Z,2.00
2023-01-20T06:51:23.143Z,2.10
2023-01-20T06:53:52.620Z,2.10
2023-01-20T06:56:23.594Z,2.10
2023-01-20T06:58:53.008Z,2.10
2023-01-20T07:01:25.620Z,2.20
2023-01-20T07:03:56.372Z,2.10
2023-01-20T07:06:31.691Z,2.10
2023-01-20T07:09:04.631Z,2.00
2023-01-20T07:11:36.094Z,2.00
2023-01-20T07:14:07.152Z,2.10
2023-01-20T07:16:37.306Z,2.10
2023-01-20T07:19:07.066Z,2.00
2023-01-20T07:21:36.485Z,2.10
2023-01-20T07:24:06.736Z,2.10
2023-01-20T07:26:36.419Z,2.10
2023-01-20T07:29:05.998Z,2.00
2023-01-20T07:31:36.319Z,2.10
2023-01-20T07:34:05.905Z,2.00
2023-01-20T07:36:36.077Z,2.10
2023-01-20T07:39:05.498Z,2.00
2023-01-20T07:41:35.204Z,2.10
2023-01-20T07:44:04.778Z,2.10
2023-01-20T07:46:34.302Z,2.10
2023-01-20T07:49:03.766Z,2.10
2023-01-20T07:51:33.914Z,2.20
2023-01-20T07:54:04.553Z,2.20
2023-01-20T07:56:35.329Z,2.20
2023-01-20T07:59:05.190Z,2.10
2023-01-20T08:01:35.205Z,2.10
2023-01-20T08:04:04.733Z,2.20
2023-01-20T08:06:34.386Z,2.20
2023-01-20T08:09:04.420Z,2.20
2023-01-20T08:11:33.821Z,2.10
2023-01-20T08:14:03.319Z,2.20
2023-01-20T08:16:32.837Z,2.30
2023-01-20T08:19:02.311Z,2.30
2023-01-20T08:21:33.581Z,2.20
2023-01-20T08:24:05.572Z,2.30
2023-01-20T08:26:35.303Z,2.20
2023-01-20T08:29:08.439Z,2.20
2023-01-20T08:31:38.586Z,2.30
2023-01-20T08:34:11.168Z,2.30
2023-01-20T08:36:42.232Z,2.30
2023-01-20T08:39:14.993Z,2.20
2023-01-20T08:41:47.331Z,2.40
2023-01-20T08:44:20.973Z,2.40
2023-01-20T08:46:52.058Z,2.30
2023-01-20T08:49:23.654Z,2.40
2023-01-20T08:51:53.256Z,2.40
2023-01-20T08:54:24.063Z,2.50
2023-01-20T08:56:54.865Z,2.50
2023-01-20T08:59:23.596Z,2.40
2023-01-20T09:01:53.952Z,2.50
2023-01-20T09:04:23.378Z,2.40
2023-01-20T09:06:54.499Z,2.50
2023-01-20T09:09:24.421Z,2.50
2023-01-20T09:11:53.911Z,2.50
2023-01-20T09:14:25.979Z,2.40
2023-01-20T09:16:55.606Z,2.60
2023-01-20T09:19:25.048Z,2.50
2023-01-20T09:21:54.453Z,2.70
2023-01-20T09:24:25.841Z,2.60
2023-01-20T09:26:56.903Z,2.60
2023-01-20T09:29:29.000Z,2.50
2023-01-20T09:31:58.673Z,2.70
2023-01-20T09:34:30.177Z,2.60
2023-01-20T09:37:03.975Z,2.70
2023-01-20T09:39:52.569Z,2.70
2023-01-20T09:42:45.644Z,2.70
2023-01-20T09:45:27.268Z,2.90
2023-01-20T09:47:59.772Z,2.80
2023-01-20T09:50:53.267Z,3.00
2023-01-20T09:53:42.985Z,2.90
2023-01-20T09:56:21.909Z,3.00
2023-01-20T09:58:55.902Z,2.90
2023-01-20T10:01:44.289Z,3.00
2023-01-20T10:04:19.752Z,3.00
2023-01-20T10:06:56.222Z,3.10
2023-01-20T10:09:47.101Z,3.20
2023-01-20T10:12:23.122Z,3.20
2023-01-20T10:15:04.905Z,3.40
2023-01-20T10:17:54.070Z,3.30
2023-01-20T10:20:29.241Z,3.30
2023-01-20T10:23:10.930Z,3.30
2023-01-20T10:25:43.404Z,3.40
2023-01-20T10:28:19.704Z,3.50
2023-01-20T10:30:49.677Z,3.50
2023-01-20T10:33:23.219Z,4.10
2023-01-20T10:35:54.375Z,3.90
2023-01-20T10:38:28.010Z,3.90
2023-01-20T10:40:58.094Z,3.80
2023-01-20T10:43:31.823Z,3.80
2023-01-20T10:46:19.273Z,4.00
2023-01-20T10:49:01.260Z,4.40
2023-01-20T10:51:50.055Z,4.50
2023-01-20T10:54:28.709Z,5.50
2023-01-20T10:57:01.287Z,5.10
2023-01-20T10:59:33.793Z,4.90
2023-01-20T11:02:12.025Z,4.90
2023-01-20T11:04:36.338Z,5.20
2023-01-20T11:07:07.700Z,4.80
2023-01-20T11:09:38.565Z,4.60
2023-01-20T11:12:17.397Z,4.70
2023-01-20T11:14:49.313Z,4.80
2023-01-20T11:17:21.708Z,4.80
2023-01-20T11:19:57.111Z,4.60
2023-01-20T11:22:31.847Z,4.40
2023-01-20T11:25:04.943Z,5.30
2023-01-20T11:27:46.951Z,6.10
2023-01-20T11:30:21.983Z,5.90
2023-01-20T11:33:13.272Z,5.10
2023-01-20T11:35:46.071Z,4.60
2023-01-20T11:38:22.461Z,5.60
2023-01-20T11:40:56.058Z,6.40
2023-01-20T11:43:34.524Z,6.20
2023-01-20T11:46:15.813Z,6.90
2023-01-20T11:48:45.490Z,7.00
2023-01-20T11:51:26.495Z,6.30
2023-01-20T11:54:12.100Z,5.60
2023-01-20T11:56:44.459Z,6.00
2023-01-20T11:59:22.845Z,6.00
2023-01-20T12:01:58.396Z,6.60
2023-01-20T12:04:33.681Z,6.70
2023-01-20T12:07:12.036Z,6.70
2023-01-20T12:09:44.965Z,6.00
2023-01-20T12:12:17.449Z,5.80
2023-01-20T12:14:47.631Z,5.80
2023-01-20T12:17:38.761Z,5.70
2023-01-20T12:20:20.222Z,5.40
2023-01-20T12:23:07.469Z,5.30
2023-01-20T12:25:41.772Z,5.00
2023-01-20T12:28:14.512Z,5.00
2023-01-20T12:31:01.102Z,5.30
2023-01-20T12:33:35.319Z,5.50
2023-01-20T12:36:30.266Z,5.70
2023-01-20T12:39:33.105Z,5.40
2023-01-20T12:42:08.417Z,5.20
2023-01-20T12:44:59.178Z,5.30
2023-01-20T12:48:02.073Z,5.60
2023-01-20T12:50:52.707Z,5.30
2023-01-20T12:53:44.628Z,5.10
2023-01-20T12:56:26.310Z,4.90
2023-01-20T12:59:04.772Z,4.80
2023-01-20T13:01:38.357Z,4.80
2023-01-20T13:04:17.811Z,5.10
2023-01-20T13:06:48.004Z,5.40
2023-01-20T13:09:28.687Z,5.70
2023-01-20T13:11:58.893Z,5.90
2023-01-20T13:14:39.793Z,5.70
2023-01-20T13:17:12.753Z,5.50
2023-01-20T13:19:42.464Z,5.40
2023-01-20T13:22:12.789Z,5.40
2023-01-20T13:24:45.234Z,5.50
2023-01-20T13:27:15.669Z,5.40
2023-01-20T13:29:54.521Z,5.30
2023-01-20T13:32:37.999Z,5.30
2023-01-20T13:35:25.440Z,5.40
2023-01-20T13:37:58.389Z,5.40
2023-01-20T13:40:45.867Z,5.60
2023-01-20T13:43:27.219Z,5.80
2023-01-20T13:46:05.795Z,5.70
2023-01-20T13:48:38.465Z,5.70
2023-01-20T13:51:31.341Z,5.60
2023-01-20T13:54:27.738Z,5.70
2023-01-20T13:57:24.611Z,5.60
2023-01-20T13:59:54.249Z,5.30
2023-01-20T14:02:29.291Z,5.40
2023-01-20T14:04:58.967Z,5.40
2023-01-20T14:07:32.825Z,5.60
2023-01-20T14:10:03.284Z,5.70
2023-01-20T14:12:35.772Z,5.50
2023-01-20T14:15:08.400Z,5.50
2023-01-20T14:17:37.850Z,5.50
2023-01-20T14:20:17.132Z,5.60
2023-01-20T14:22:46.874Z,5.40
2023-01-20T14:25:23.545Z,5.30
2023-01-20T14:27:54.651Z,5.40
2023-01-20T14:30:28.483Z,5.30
2023-01-20T14:32:58.071Z,5.30
2023-01-20T14:35:33.889Z,5.20
2023-01-20T14:38:03.931Z,5.10
2023-01-20T14:40:36.509Z,5.20
2023-01-20T14:43:18.609Z,5.20
2023-01-20T14:45:53.149Z,5.20
2023-01-20T14:48:34.547Z,5.30
2023-01-20T14:50:57.477Z,5.30
2023-01-20T14:53:27.116Z,5.30
2023-01-20T14:56:02.643Z,5.30
2023-01-20T14:58:35.117Z,5.20
2023-01-20T15:01:06.901Z,5.10
2023-01-20T15:03:37.205Z,5.00
2023-01-20T15:06:21.561Z,4.90
2023-01-20T15:09:05.650Z,5.00
2023-01-20T15:11:29.108Z,4.90
2023-01-20T15:14:12.142Z,5.00
2023-01-20T15:16:46.575Z,5.10
2023-01-20T15:19:20.893Z,5.00
2023-01-20T15:21:52.733Z,5.00
2023-01-20T15:24:35.382Z,5.00
2023-01-20T15:27:07.973Z,4.90
2023-01-20T15:29:39.108Z,4.90
2023-01-20T15:32:13.283Z,4.90
2023-01-20T15:34:42.816Z,5.00
2023-01-20T15:37:21.851Z,5.00
2023-01-20T15:39:51.214Z,5.00
2023-01-20T15:42:23.341Z,5.00
2023-01-20T15:44:52.821Z,5.00
2023-01-20T15:47:26.532Z,5.00
2023-01-20T15:49:57.707Z,5.00
2023-01-20T15:52:27.428Z,5.00
2023-01-20T15:54:56.883Z,5.10
2023-01-20T15:57:26.441Z,5.10
2023-01-20T15:59:55.887Z,5.20
2023-01-20T16:02:25.681Z,5.10
2023-01-20T16:04:54.319Z,5.00
2023-01-20T16:07:23.760Z,4.90
2023-01-20T16:09:52.647Z,4.90
2023-01-20T16:12:21.223Z,4.80
2023-01-20T16:14:49.787Z,4.70
2023-01-20T16:17:22.471Z,4.60
2023-01-20T16:19:51.721Z,4.60
2023-01-20T16:22:21.087Z,4.60
2023-01-20T16:24:52.057Z,4.60
2023-01-20T16:27:24.676Z,4.60
2023-01-20T16:29:56.555Z,4.60
2023-01-20T16:32:26.028Z,4.60
2023-01-20T16:34:55.608Z,4.60
2023-01-20T16:37:25.100Z,4.60
2023-01-20T16:39:54.617Z,4.50
2023-01-20T16:42:24.146Z,4.40
2023-01-20T16:44:54.330Z,4.40
2023-01-20T16:47:23.774Z,4.40
2023-01-20T16:49:53.630Z,4.30
2023-01-20T16:52:23.104Z,4.20
2023-01-20T16:54:54.171Z,4.20
2023-01-20T16:57:23.675Z,4.10
2023-01-20T16:59:53.185Z,4.00
2023-01-20T17:02:24.451Z,3.90
2023-01-20T17:04:54.026Z,3.90
2023-01-20T17:07:22.689Z,3.80
2023-01-20T17:09:52.066Z,3.70
2023-01-20T17:12:20.724Z,3.60
2023-01-20T17:14:49.770Z,3.60
2023-01-20T17:17:18.688Z,3.60
2023-01-20T17:19:47.396Z,3.50
2023-01-20T17:22:17.714Z,3.50
2023-01-20T17:24:47.163Z,3.50
2023-01-20T17:27:15.839Z,3.40
2023-01-20T17:29:45.199Z,3.40
2023-01-20T17:32:16.168Z,3.40
2023-01-20T17:34:45.609Z,3.30
2023-01-20T17:37:15.292Z,3.30
2023-01-20T17:39:46.881Z,3.30
2023-01-20T17:42:17.689Z,3.20
2023-01-20T17:44:46.701Z,3.20
2023-01-20T17:47:15.381Z,3.10
2023-01-20T17:49:43.978Z,3.20
2023-01-20T17:52:12.577Z,3.20
2023-01-20T17:54:41.437Z,3.20
2023-01-20T17:57:11.681Z,3.10
2023-01-20T17:59:40.453Z,3.10
2023-01-20T18:02:10.635Z,3.20
2023-01-20T18:04:40.659Z,3.10
2023-01-20T18:07:10.083Z,3.10
2023-01-20T18:09:38.799Z,3.10
2023-01-20T18:12:07.367Z,3.00
2023-01-20T18:14:36.772Z,3.00
2023-01-20T18:17:06.245Z,2.90
2023-01-20T18:19:35.792Z,2.90
2023-01-20T18:22:06.122Z,2.80
2023-01-20T18:24:34.780Z,2.80
2023-01-20T18:27:03.502Z,2.80
2023-01-20T18:29:33.845Z,2.80
2023-01-20T18:32:04.557Z,2.80
2023-01-20T18:34:33.957Z,2.80
2023-01-20T18:37:02.538Z,2.80
2023-01-20T18:39:31.184Z,2.80
2023-01-20T18:42:00.633Z,2.80
2023-01-20T18:44:30.654Z,2.80
2023-01-20T18:47:01.825Z,2.70
2023-01-20T18:49:31.279Z,2.70
2023-01-20T18:52:00.726Z,2.70
2023-01-20T18:54:31.956Z,2.70
2023-01-20T18:57:01.411Z,2.70
2023-01-20T18:59:30.843Z,2.70
2023-01-20T19:02:00.383Z,2.60
2023-01-20T19:04:31.385Z,2.60
2023-01-20T19:07:00.867Z,2.60
2023-01-20T19:09:30.393Z,2.60
2023-01-20T19:11:59.845Z,2.70
2023-01-20T19:14:29.303Z,2.60
2023-01-20T19:16:58.757Z,2.60
2023-01-20T19:19:28.181Z,2.60
2023-01-20T19:21:57.692Z,2.50
2023-01-20T19:24:28.887Z,2.40
2023-01-20T19:27:00.100Z,2.50
2023-01-20T19:29:30.956Z,2.50
2023-01-20T19:32:01.531Z,2.60
2023-01-20T19:34:31.033Z,2.60
2023-01-20T19:37:01.965Z,2.60
2023-01-20T19:39:31.403Z,2.60
2023-01-20T19:42:00.865Z,2.60
2023-01-20T19:44:30.415Z,2.60
2023-01-20T19:47:01.546Z,2.60
2023-01-20T19:49:32.624Z,2.60
2023-01-20T19:52:02.078Z,2.50
2023-01-20T19:54:33.298Z,2.50
2023-01-20T19:57:02.908Z,2.30
2023-01-20T19:59:32.335Z,2.40
2023-01-20T20:02:01.800Z,2.30
2023-01-20T20:04:31.321Z,2.30
2023-01-20T20:07:00.768Z,2.30
2023-01-20T20:09:31.178Z,2.40
2023-01-20T20:12:02.260Z,2.40
2023-01-20T20:14:31.793Z,2.40
2023-01-20T20:17:02.660Z,2.30
2023-01-20T20:19:32.230Z,2.30
2023-01-20T20:22:01.673Z,2.30
2023-01-20T20:24:31.113Z,2.30
2023-01-20T20:27:00.572Z,2.10
2023-01-20T20:29:30.026Z,2.10
2023-01-20T20:31:59.583Z,2.20
2023-01-20T20:34:29.064Z,2.30
2023-01-20T20:36:58.518Z,2.20
2023-01-20T20:39:28.053Z,2.20
2023-01-20T20:41:57.569Z,2.20
2023-01-20T20:44:27.083Z,2.20
2023-01-20T20:46:56.554Z,2.20
2023-01-20T20:49:26.782Z,2.10
2023-01-20T20:51:56.247Z,2.20
2023-01-20T20:54:25.648Z,2.30
2023-01-20T20:56:54.826Z,2.20
2023-01-20T20:59:25.748Z,1.90
2023-01-20T21:01:55.381Z,1.90
2023-01-20T21:04:24.921Z,1.90
2023-01-20T21:06:54.375Z,1.80
2023-01-20T21:09:23.834Z,1.80
2023-01-20T21:11:53.303Z,1.60
2023-01-20T21:14:23.942Z,1.70
2023-01-20T21:16:53.397Z,1.60
2023-01-20T21:19:22.917Z,1.50
2023-01-20T21:21:52.425Z,1.40
2023-01-20T21:24:23.510Z,1.50
2023-01-20T21:26:53.567Z,1.60
2023-01-20T21:29:23.018Z,1.50
2023-01-20T21:31:54.045Z,1.50
2023-01-20T21:34:23.920Z,1.50
2023-01-20T21:36:55.000Z,1.40
2023-01-20T21:39:24.457Z,1.50
2023-01-20T21:41:53.917Z,1.30
2023-01-20T21:44:29.449Z,1.30
2023-01-20T21:47:01.767Z,1.30
2023-01-20T21:49:50.489Z,1.30
2023-01-20T21:52:40.867Z,1.30
2023-01-20T21:55:13.133Z,1.30
2023-01-20T21:57:43.258Z,1.40
2023-01-20T22:00:14.924Z,1.30
2023-01-20T22:02:47.903Z,1.30
2023-01-20T22:05:18.966Z,1.30
2023-01-20T22:07:48.456Z,1.30
2023-01-20T22:10:18.441Z,1.30
2023-01-20T22:12:49.079Z,1.40
2023-01-20T22:15:18.736Z,1.40
2023-01-20T22:17:48.155Z,1.50
2023-01-20T22:20:18.227Z,1.30
2023-01-20T22:22:48.228Z,1.10
2023-01-20T22:25:17.769Z,1.10
2023-01-20T22:27:49.279Z,1.30
2023-01-20T22:30:19.197Z,1.20
2023-01-20T22:32:48.741Z,1.30
2023-01-20T22:35:18.351Z,1.30
2023-01-20T22:37:47.789Z,1.20
2023-01-20T22:40:17.740Z,1.10
2023-01-20T22:42:48.282Z,1.10
2023-01-20T22:45:17.786Z,1.00
2023-01-20T22:47:47.708Z,1.00
2023-01-20T22:50:17.751Z,1.00
2023-01-20T22:52:48.262Z,1.00
2023-01-20T22:55:17.766Z,1.00
2023-01-20T22:57:47.265Z,1.00
2023-01-20T23:00:17.359Z,0.90
2023-01-20T23:02:47.013Z,1.00
2023-01-20T23:05:16.544Z,1.00
2023-01-20T23:07:45.959Z,0.90
2023-01-20T23:10:17.319Z,0.80
2023-01-20T23:12:47.431Z,0.90
2023-01-20T23:15:17.018Z,1.00
2023-01-20T23:17:46.444Z,1.10
2023-01-20T23:20:16.177Z,1.10
2023-01-20T23:22:45.775Z,1.10
2023-01-20T23:25:15.349Z,1.10
2023-01-20T23:27:44.848Z,1.00
2023-01-20T23:30:14.695Z,0.80
2023-01-20T23:32:45.735Z,0.80
2023-01-20T23:35:15.239Z,0.90
2023-01-20T23:37:44.753Z,0.60
2023-01-20T23:40:14.533Z,0.50
2023-01-20T23:42:44.555Z,0.50
2023-01-20T23:45:14.619Z,0.30
2023-01-20T23:47:44.909Z,0.30
2023-01-20T23:50:14.597Z,0.30
2023-01-20T23:52:45.481Z,0.50
2023-01-20T23:55:14.986Z,0.60
2023-01-20T23:57:44.423Z,0.70
